<?xml version="1.0" encoding="UTF-8" standalone="no" ?>
<gpx xmlns="http://www.topografix.com/GPX/1/1" xmlns:xsi="http://www.w3.org/2001/XMLSchema-instance" xsi:schemaLocation="http://www.topografix.com/GPX/1/1 http://www.topografix.com/GPX/1/1/gpx.xsd" version="1.1" creator="VisuGPX - https://www.visugpx.com">
  <metadata>
    <name>Presque lac d'Estom - 03/08/2024</name>
  </metadata>
  <trk>
    <name><![CDATA[Presque lac d'Estom - 03/08/2024_1]]></name>
    <trkseg>
      <trkpt lat="42.82642" lon="-0.09634">
        <ele>1549.6</ele>
        <time>2024-08-03T11:05:29Z</time>
      </trkpt>
      <trkpt lat="42.82641" lon="-0.09632">
        <ele>1550</ele>
        <time>2024-08-03T11:05:30Z</time>
      </trkpt>
      <trkpt lat="42.8264" lon="-0.09628">
        <ele>1550.6</ele>
        <time>2024-08-03T11:05:32Z</time>
      </trkpt>
      <trkpt lat="42.82551" lon="-0.09615">
        <ele>1555.4</ele>
        <time>2024-08-03T11:07:14Z</time>
      </trkpt>
      <trkpt lat="42.82548" lon="-0.09617">
        <ele>1555.4</ele>
        <time>2024-08-03T11:07:15Z</time>
      </trkpt>
      <trkpt lat="42.82541" lon="-0.09619">
        <ele>1554.8</ele>
        <time>2024-08-03T11:07:18Z</time>
      </trkpt>
      <trkpt lat="42.82533" lon="-0.09618">
        <ele>1554.4</ele>
        <time>2024-08-03T11:07:24Z</time>
      </trkpt>
      <trkpt lat="42.82436" lon="-0.09629">
        <ele>1557</ele>
        <time>2024-08-03T11:09:12Z</time>
      </trkpt>
      <trkpt lat="42.82422" lon="-0.09632">
        <ele>1557.6</ele>
        <time>2024-08-03T11:09:22Z</time>
      </trkpt>
      <trkpt lat="42.82406" lon="-0.09635">
        <ele>1557.6</ele>
        <time>2024-08-03T11:09:33Z</time>
      </trkpt>
      <trkpt lat="42.82333" lon="-0.09718">
        <ele>1561</ele>
        <time>2024-08-03T11:11:13Z</time>
      </trkpt>
      <trkpt lat="42.82326" lon="-0.09718">
        <ele>1561</ele>
        <time>2024-08-03T11:11:16Z</time>
      </trkpt>
      <trkpt lat="42.82313" lon="-0.09713">
        <ele>1560.8</ele>
        <time>2024-08-03T11:11:24Z</time>
      </trkpt>
      <trkpt lat="42.82313" lon="-0.09712">
        <ele>1560.6</ele>
        <time>2024-08-03T11:11:25Z</time>
      </trkpt>
      <trkpt lat="42.82307" lon="-0.09712">
        <ele>1560.8</ele>
        <time>2024-08-03T11:11:32Z</time>
      </trkpt>
      <trkpt lat="42.82212" lon="-0.09747">
        <ele>1571.8</ele>
        <time>2024-08-03T11:13:15Z</time>
      </trkpt>
      <trkpt lat="42.82184" lon="-0.09753">
        <ele>1574.8</ele>
        <time>2024-08-03T11:13:44Z</time>
      </trkpt>
      <trkpt lat="42.82183" lon="-0.09765">
        <ele>1575</ele>
        <time>2024-08-03T11:13:45Z</time>
      </trkpt>
      <trkpt lat="42.82177" lon="-0.09771">
        <ele>1576</ele>
        <time>2024-08-03T11:13:52Z</time>
      </trkpt>
      <trkpt lat="42.82175" lon="-0.09775">
        <ele>1576.4</ele>
        <time>2024-08-03T11:13:56Z</time>
      </trkpt>
      <trkpt lat="42.82173" lon="-0.09779">
        <ele>1577.2</ele>
        <time>2024-08-03T11:14:02Z</time>
      </trkpt>
      <trkpt lat="42.82173" lon="-0.09779">
        <ele>1577.4</ele>
        <time>2024-08-03T11:14:04Z</time>
      </trkpt>
      <trkpt lat="42.82083" lon="-0.09805">
        <ele>1582.8</ele>
        <time>2024-08-03T11:15:46Z</time>
      </trkpt>
      <trkpt lat="42.82073" lon="-0.09799">
        <ele>1583.6</ele>
        <time>2024-08-03T11:15:56Z</time>
      </trkpt>
      <trkpt lat="42.82067" lon="-0.09795">
        <ele>1584.4</ele>
        <time>2024-08-03T11:16:04Z</time>
      </trkpt>
      <trkpt lat="42.81997" lon="-0.09814">
        <ele>1598.8</ele>
        <time>2024-08-03T11:17:42Z</time>
      </trkpt>
      <trkpt lat="42.81989" lon="-0.09808">
        <ele>1599</ele>
        <time>2024-08-03T11:17:43Z</time>
      </trkpt>
      <trkpt lat="42.8199" lon="-0.09812">
        <ele>1599.6</ele>
        <time>2024-08-03T11:17:46Z</time>
      </trkpt>
      <trkpt lat="42.81991" lon="-0.09814">
        <ele>1599.8</ele>
        <time>2024-08-03T11:17:48Z</time>
      </trkpt>
      <trkpt lat="42.81989" lon="-0.09817">
        <ele>1600</ele>
        <time>2024-08-03T11:17:51Z</time>
      </trkpt>
      <trkpt lat="42.81988" lon="-0.09817">
        <ele>1600.2</ele>
        <time>2024-08-03T11:17:52Z</time>
      </trkpt>
      <trkpt lat="42.81985" lon="-0.09819">
        <ele>1600.8</ele>
        <time>2024-08-03T11:17:55Z</time>
      </trkpt>
      <trkpt lat="42.81984" lon="-0.09821">
        <ele>1601.2</ele>
        <time>2024-08-03T11:17:57Z</time>
      </trkpt>
      <trkpt lat="42.81981" lon="-0.09818">
        <ele>1602.2</ele>
        <time>2024-08-03T11:18:04Z</time>
      </trkpt>
      <trkpt lat="42.81894" lon="-0.09835">
        <ele>1604.4</ele>
        <time>2024-08-03T11:19:43Z</time>
      </trkpt>
      <trkpt lat="42.81894" lon="-0.09832">
        <ele>1604.6</ele>
        <time>2024-08-03T11:19:45Z</time>
      </trkpt>
      <trkpt lat="42.81881" lon="-0.09821">
        <ele>1605.2</ele>
        <time>2024-08-03T11:19:54Z</time>
      </trkpt>
      <trkpt lat="42.81878" lon="-0.0982">
        <ele>1605.4</ele>
        <time>2024-08-03T11:19:58Z</time>
      </trkpt>
      <trkpt lat="42.81877" lon="-0.09817">
        <ele>1605.6</ele>
        <time>2024-08-03T11:20:02Z</time>
      </trkpt>
      <trkpt lat="42.818" lon="-0.09842">
        <ele>1613</ele>
        <time>2024-08-03T11:21:45Z</time>
      </trkpt>
      <trkpt lat="42.81809" lon="-0.09818">
        <ele>1613</ele>
        <time>2024-08-03T11:21:47Z</time>
      </trkpt>
      <trkpt lat="42.8181" lon="-0.09818">
        <ele>1613</ele>
        <time>2024-08-03T11:21:48Z</time>
      </trkpt>
      <trkpt lat="42.81807" lon="-0.09814">
        <ele>1613.8</ele>
        <time>2024-08-03T11:21:55Z</time>
      </trkpt>
      <trkpt lat="42.81802" lon="-0.09818">
        <ele>1614</ele>
        <time>2024-08-03T11:21:58Z</time>
      </trkpt>
      <trkpt lat="42.81796" lon="-0.09821">
        <ele>1614.4</ele>
        <time>2024-08-03T11:22:03Z</time>
      </trkpt>
      <trkpt lat="42.81706" lon="-0.09827">
        <ele>1622.6</ele>
        <time>2024-08-03T11:23:44Z</time>
      </trkpt>
      <trkpt lat="42.81704" lon="-0.09826">
        <ele>1622.6</ele>
        <time>2024-08-03T11:23:45Z</time>
      </trkpt>
      <trkpt lat="42.81696" lon="-0.09827">
        <ele>1622.6</ele>
        <time>2024-08-03T11:23:46Z</time>
      </trkpt>
      <trkpt lat="42.81692" lon="-0.0983">
        <ele>1622.6</ele>
        <time>2024-08-03T11:23:48Z</time>
      </trkpt>
      <trkpt lat="42.81685" lon="-0.09831">
        <ele>1622.8</ele>
        <time>2024-08-03T11:23:49Z</time>
      </trkpt>
      <trkpt lat="42.81682" lon="-0.0983">
        <ele>1623</ele>
        <time>2024-08-03T11:23:50Z</time>
      </trkpt>
      <trkpt lat="42.81681" lon="-0.09822">
        <ele>1623.6</ele>
        <time>2024-08-03T11:23:57Z</time>
      </trkpt>
      <trkpt lat="42.81676" lon="-0.09832">
        <ele>1623.8</ele>
        <time>2024-08-03T11:24:02Z</time>
      </trkpt>
      <trkpt lat="42.81598" lon="-0.09873">
        <ele>1641.4</ele>
        <time>2024-08-03T11:25:50Z</time>
      </trkpt>
      <trkpt lat="42.81624" lon="-0.09848">
        <ele>1641.6</ele>
        <time>2024-08-03T11:25:51Z</time>
      </trkpt>
      <trkpt lat="42.81613" lon="-0.0985">
        <ele>1642</ele>
        <time>2024-08-03T11:25:53Z</time>
      </trkpt>
      <trkpt lat="42.81627" lon="-0.09831">
        <ele>1642.2</ele>
        <time>2024-08-03T11:25:56Z</time>
      </trkpt>
      <trkpt lat="42.81637" lon="-0.09821">
        <ele>1642.4</ele>
        <time>2024-08-03T11:25:57Z</time>
      </trkpt>
      <trkpt lat="42.81615" lon="-0.0982">
        <ele>1643.4</ele>
        <time>2024-08-03T11:26:05Z</time>
      </trkpt>
      <trkpt lat="42.81584" lon="-0.09844">
        <ele>1644.6</ele>
        <time>2024-08-03T11:26:13Z</time>
      </trkpt>
      <trkpt lat="42.81603" lon="-0.09817">
        <ele>1649</ele>
        <time>2024-08-03T11:26:43Z</time>
      </trkpt>
      <trkpt lat="42.81576" lon="-0.09827">
        <ele>1649</ele>
        <time>2024-08-03T11:26:44Z</time>
      </trkpt>
      <trkpt lat="42.81543" lon="-0.09847">
        <ele>1649.4</ele>
        <time>2024-08-03T11:26:46Z</time>
      </trkpt>
      <trkpt lat="42.81542" lon="-0.09856">
        <ele>1650</ele>
        <time>2024-08-03T11:26:51Z</time>
      </trkpt>
      <trkpt lat="42.81541" lon="-0.09853">
        <ele>1650.4</ele>
        <time>2024-08-03T11:26:55Z</time>
      </trkpt>
      <trkpt lat="42.8154" lon="-0.0985">
        <ele>1651</ele>
        <time>2024-08-03T11:26:59Z</time>
      </trkpt>
      <trkpt lat="42.81538" lon="-0.09847">
        <ele>1651.2</ele>
        <time>2024-08-03T11:27:02Z</time>
      </trkpt>
      <trkpt lat="42.81491" lon="-0.09852">
        <ele>1670</ele>
        <time>2024-08-03T11:28:47Z</time>
      </trkpt>
      <trkpt lat="42.81493" lon="-0.09846">
        <ele>1670.2</ele>
        <time>2024-08-03T11:28:48Z</time>
      </trkpt>
      <trkpt lat="42.81492" lon="-0.09835">
        <ele>1670.6</ele>
        <time>2024-08-03T11:28:52Z</time>
      </trkpt>
      <trkpt lat="42.81491" lon="-0.09833">
        <ele>1671.2</ele>
        <time>2024-08-03T11:28:55Z</time>
      </trkpt>
      <trkpt lat="42.81493" lon="-0.09832">
        <ele>1672</ele>
        <time>2024-08-03T11:28:58Z</time>
      </trkpt>
      <trkpt lat="42.81492" lon="-0.09836">
        <ele>1672.6</ele>
        <time>2024-08-03T11:29:01Z</time>
      </trkpt>
      <trkpt lat="42.81492" lon="-0.09838">
        <ele>1673</ele>
        <time>2024-08-03T11:29:03Z</time>
      </trkpt>
      <trkpt lat="42.81495" lon="-0.09865">
        <ele>1685.2</ele>
        <time>2024-08-03T11:30:45Z</time>
      </trkpt>
      <trkpt lat="42.81495" lon="-0.09865">
        <ele>1685.2</ele>
        <time>2024-08-03T11:30:46Z</time>
      </trkpt>
      <trkpt lat="42.81489" lon="-0.09863">
        <ele>1685.2</ele>
        <time>2024-08-03T11:30:51Z</time>
      </trkpt>
      <trkpt lat="42.81475" lon="-0.09865">
        <ele>1685.2</ele>
        <time>2024-08-03T11:30:59Z</time>
      </trkpt>
      <trkpt lat="42.81495" lon="-0.09852">
        <ele>1685.8</ele>
        <time>2024-08-03T11:32:48Z</time>
      </trkpt>
      <trkpt lat="42.8148" lon="-0.0986">
        <ele>1686</ele>
        <time>2024-08-03T11:32:54Z</time>
      </trkpt>
      <trkpt lat="42.81484" lon="-0.09856">
        <ele>1686</ele>
        <time>2024-08-03T11:32:56Z</time>
      </trkpt>
      <trkpt lat="42.81488" lon="-0.09852">
        <ele>1686.2</ele>
        <time>2024-08-03T11:32:57Z</time>
      </trkpt>
      <trkpt lat="42.81476" lon="-0.09868">
        <ele>1687.2</ele>
        <time>2024-08-03T11:34:42Z</time>
      </trkpt>
      <trkpt lat="42.81478" lon="-0.09864">
        <ele>1687</ele>
        <time>2024-08-03T11:34:58Z</time>
      </trkpt>
      <trkpt lat="42.81481" lon="-0.09846">
        <ele>1679.6</ele>
        <time>2024-08-03T11:36:44Z</time>
      </trkpt>
      <trkpt lat="42.81486" lon="-0.09832">
        <ele>1679.6</ele>
        <time>2024-08-03T11:36:45Z</time>
      </trkpt>
      <trkpt lat="42.81485" lon="-0.09852">
        <ele>1678.8</ele>
        <time>2024-08-03T11:36:49Z</time>
      </trkpt>
      <trkpt lat="42.81487" lon="-0.0985">
        <ele>1678.6</ele>
        <time>2024-08-03T11:36:50Z</time>
      </trkpt>
      <trkpt lat="42.81489" lon="-0.09849">
        <ele>1678.4</ele>
        <time>2024-08-03T11:36:51Z</time>
      </trkpt>
      <trkpt lat="42.81488" lon="-0.09845">
        <ele>1678.2</ele>
        <time>2024-08-03T11:36:53Z</time>
      </trkpt>
      <trkpt lat="42.81487" lon="-0.09846">
        <ele>1677.8</ele>
        <time>2024-08-03T11:36:55Z</time>
      </trkpt>
      <trkpt lat="42.81488" lon="-0.09847">
        <ele>1677.8</ele>
        <time>2024-08-03T11:36:56Z</time>
      </trkpt>
      <trkpt lat="42.81489" lon="-0.09849">
        <ele>1677.4</ele>
        <time>2024-08-03T11:37:00Z</time>
      </trkpt>
      <trkpt lat="42.81489" lon="-0.09849">
        <ele>1677.4</ele>
        <time>2024-08-03T11:37:01Z</time>
      </trkpt>
      <trkpt lat="42.81524" lon="-0.09855">
        <ele>1663.8</ele>
        <time>2024-08-03T11:38:46Z</time>
      </trkpt>
      <trkpt lat="42.8153" lon="-0.09854">
        <ele>1663.4</ele>
        <time>2024-08-03T11:38:48Z</time>
      </trkpt>
      <trkpt lat="42.81526" lon="-0.09857">
        <ele>1662.8</ele>
        <time>2024-08-03T11:38:52Z</time>
      </trkpt>
      <trkpt lat="42.81526" lon="-0.09858">
        <ele>1662.6</ele>
        <time>2024-08-03T11:38:53Z</time>
      </trkpt>
      <trkpt lat="42.8153" lon="-0.09856">
        <ele>1661.8</ele>
        <time>2024-08-03T11:39:00Z</time>
      </trkpt>
      <trkpt lat="42.81532" lon="-0.09857">
        <ele>1661.2</ele>
        <time>2024-08-03T11:39:04Z</time>
      </trkpt>
      <trkpt lat="42.81602" lon="-0.09886">
        <ele>1645.6</ele>
        <time>2024-08-03T11:40:46Z</time>
      </trkpt>
      <trkpt lat="42.81604" lon="-0.09884">
        <ele>1645.6</ele>
        <time>2024-08-03T11:40:47Z</time>
      </trkpt>
      <trkpt lat="42.81609" lon="-0.09885">
        <ele>1644.4</ele>
        <time>2024-08-03T11:40:53Z</time>
      </trkpt>
      <trkpt lat="42.8161" lon="-0.09884">
        <ele>1644.2</ele>
        <time>2024-08-03T11:40:54Z</time>
      </trkpt>
      <trkpt lat="42.81614" lon="-0.09873">
        <ele>1643.4</ele>
        <time>2024-08-03T11:41:02Z</time>
      </trkpt>
      <trkpt lat="42.81614" lon="-0.09873">
        <ele>1643.2</ele>
        <time>2024-08-03T11:41:03Z</time>
      </trkpt>
      <trkpt lat="42.81626" lon="-0.09857">
        <ele>1640.2</ele>
        <time>2024-08-03T11:42:44Z</time>
      </trkpt>
      <trkpt lat="42.81616" lon="-0.09864">
        <ele>1640.2</ele>
        <time>2024-08-03T11:42:46Z</time>
      </trkpt>
      <trkpt lat="42.81605" lon="-0.09861">
        <ele>1639.6</ele>
        <time>2024-08-03T11:42:53Z</time>
      </trkpt>
      <trkpt lat="42.81602" lon="-0.09851">
        <ele>1639.4</ele>
        <time>2024-08-03T11:42:59Z</time>
      </trkpt>
      <trkpt lat="42.81671" lon="-0.09845">
        <ele>1633.4</ele>
        <time>2024-08-03T11:44:44Z</time>
      </trkpt>
      <trkpt lat="42.81682" lon="-0.09845">
        <ele>1634</ele>
        <time>2024-08-03T11:44:50Z</time>
      </trkpt>
      <trkpt lat="42.81683" lon="-0.09841">
        <ele>1633.2</ele>
        <time>2024-08-03T11:44:57Z</time>
      </trkpt>
      <trkpt lat="42.81687" lon="-0.09844">
        <ele>1633</ele>
        <time>2024-08-03T11:45:04Z</time>
      </trkpt>
      <trkpt lat="42.81785" lon="-0.09827">
        <ele>1626.4</ele>
        <time>2024-08-03T11:46:45Z</time>
      </trkpt>
      <trkpt lat="42.81808" lon="-0.09821">
        <ele>1626.2</ele>
        <time>2024-08-03T11:46:51Z</time>
      </trkpt>
      <trkpt lat="42.81814" lon="-0.09817">
        <ele>1625.8</ele>
        <time>2024-08-03T11:46:56Z</time>
      </trkpt>
      <trkpt lat="42.81815" lon="-0.09811">
        <ele>1625.6</ele>
        <time>2024-08-03T11:46:59Z</time>
      </trkpt>
      <trkpt lat="42.81814" lon="-0.0981">
        <ele>1625.4</ele>
        <time>2024-08-03T11:47:00Z</time>
      </trkpt>
      <trkpt lat="42.81815" lon="-0.09808">
        <ele>1625.2</ele>
        <time>2024-08-03T11:47:02Z</time>
      </trkpt>
      <trkpt lat="42.81898" lon="-0.0982">
        <ele>1618.6</ele>
        <time>2024-08-03T11:48:43Z</time>
      </trkpt>
      <trkpt lat="42.81871" lon="-0.09825">
        <ele>1618.6</ele>
        <time>2024-08-03T11:48:44Z</time>
      </trkpt>
      <trkpt lat="42.81856" lon="-0.09837">
        <ele>1618.4</ele>
        <time>2024-08-03T11:48:46Z</time>
      </trkpt>
      <trkpt lat="42.81863" lon="-0.09833">
        <ele>1618.2</ele>
        <time>2024-08-03T11:48:47Z</time>
      </trkpt>
      <trkpt lat="42.81872" lon="-0.09827">
        <ele>1618</ele>
        <time>2024-08-03T11:48:49Z</time>
      </trkpt>
      <trkpt lat="42.81875" lon="-0.09825">
        <ele>1617.8</ele>
        <time>2024-08-03T11:48:50Z</time>
      </trkpt>
      <trkpt lat="42.81882" lon="-0.09824">
        <ele>1617.8</ele>
        <time>2024-08-03T11:48:52Z</time>
      </trkpt>
      <trkpt lat="42.81885" lon="-0.09824">
        <ele>1617.6</ele>
        <time>2024-08-03T11:48:53Z</time>
      </trkpt>
      <trkpt lat="42.81889" lon="-0.09824">
        <ele>1617.2</ele>
        <time>2024-08-03T11:48:55Z</time>
      </trkpt>
      <trkpt lat="42.8189" lon="-0.09826">
        <ele>1617</ele>
        <time>2024-08-03T11:48:57Z</time>
      </trkpt>
      <trkpt lat="42.81892" lon="-0.09827">
        <ele>1616.8</ele>
        <time>2024-08-03T11:49:01Z</time>
      </trkpt>
      <trkpt lat="42.81894" lon="-0.09827">
        <ele>1616.8</ele>
        <time>2024-08-03T11:49:02Z</time>
      </trkpt>
      <trkpt lat="42.82008" lon="-0.09812">
        <ele>1611.8</ele>
        <time>2024-08-03T11:50:45Z</time>
      </trkpt>
      <trkpt lat="42.82007" lon="-0.09804">
        <ele>1610.4</ele>
        <time>2024-08-03T11:50:51Z</time>
      </trkpt>
      <trkpt lat="42.82009" lon="-0.09803">
        <ele>1610</ele>
        <time>2024-08-03T11:50:53Z</time>
      </trkpt>
      <trkpt lat="42.82012" lon="-0.09801">
        <ele>1609.4</ele>
        <time>2024-08-03T11:50:56Z</time>
      </trkpt>
      <trkpt lat="42.82017" lon="-0.09799">
        <ele>1608.2</ele>
        <time>2024-08-03T11:51:03Z</time>
      </trkpt>
      <trkpt lat="42.82017" lon="-0.09799">
        <ele>1607.8</ele>
        <time>2024-08-03T11:51:04Z</time>
      </trkpt>
      <trkpt lat="42.82113" lon="-0.09796">
        <ele>1596.8</ele>
        <time>2024-08-03T11:52:42Z</time>
      </trkpt>
      <trkpt lat="42.82114" lon="-0.09803">
        <ele>1596.4</ele>
        <time>2024-08-03T11:52:46Z</time>
      </trkpt>
      <trkpt lat="42.82116" lon="-0.09804">
        <ele>1596</ele>
        <time>2024-08-03T11:52:48Z</time>
      </trkpt>
      <trkpt lat="42.82121" lon="-0.09801">
        <ele>1595.4</ele>
        <time>2024-08-03T11:52:52Z</time>
      </trkpt>
      <trkpt lat="42.82125" lon="-0.09799">
        <ele>1594.8</ele>
        <time>2024-08-03T11:52:56Z</time>
      </trkpt>
      <trkpt lat="42.82129" lon="-0.09795">
        <ele>1594.2</ele>
        <time>2024-08-03T11:53:01Z</time>
      </trkpt>
      <trkpt lat="42.82131" lon="-0.09792">
        <ele>1594</ele>
        <time>2024-08-03T11:53:03Z</time>
      </trkpt>
      <trkpt lat="42.82137" lon="-0.09789">
        <ele>1593</ele>
        <time>2024-08-03T11:53:08Z</time>
      </trkpt>
      <trkpt lat="42.82142" lon="-0.09788">
        <ele>1592</ele>
        <time>2024-08-03T11:53:13Z</time>
      </trkpt>
      <trkpt lat="42.82145" lon="-0.09788">
        <ele>1591.8</ele>
        <time>2024-08-03T11:53:15Z</time>
      </trkpt>
      <trkpt lat="42.8215" lon="-0.09787">
        <ele>1590.8</ele>
        <time>2024-08-03T11:53:21Z</time>
      </trkpt>
      <trkpt lat="42.82153" lon="-0.09784">
        <ele>1590.2</ele>
        <time>2024-08-03T11:53:24Z</time>
      </trkpt>
      <trkpt lat="42.82156" lon="-0.09784">
        <ele>1589.6</ele>
        <time>2024-08-03T11:53:28Z</time>
      </trkpt>
      <trkpt lat="42.8216" lon="-0.09784">
        <ele>1589</ele>
        <time>2024-08-03T11:53:31Z</time>
      </trkpt>
      <trkpt lat="42.82162" lon="-0.09784">
        <ele>1588.4</ele>
        <time>2024-08-03T11:53:33Z</time>
      </trkpt>
      <trkpt lat="42.82172" lon="-0.0978">
        <ele>1587.4</ele>
        <time>2024-08-03T11:53:41Z</time>
      </trkpt>
      <trkpt lat="42.82173" lon="-0.09781">
        <ele>1587.2</ele>
        <time>2024-08-03T11:53:42Z</time>
      </trkpt>
      <trkpt lat="42.82181" lon="-0.09775">
        <ele>1586.4</ele>
        <time>2024-08-03T11:53:48Z</time>
      </trkpt>
      <trkpt lat="42.82182" lon="-0.09774">
        <ele>1586.2</ele>
        <time>2024-08-03T11:53:49Z</time>
      </trkpt>
      <trkpt lat="42.82189" lon="-0.09772">
        <ele>1585.2</ele>
        <time>2024-08-03T11:53:55Z</time>
      </trkpt>
      <trkpt lat="42.82195" lon="-0.09769">
        <ele>1583.8</ele>
        <time>2024-08-03T11:54:01Z</time>
      </trkpt>
      <trkpt lat="42.82196" lon="-0.09769">
        <ele>1583.8</ele>
        <time>2024-08-03T11:54:02Z</time>
      </trkpt>
      <trkpt lat="42.82199" lon="-0.09765">
        <ele>1582.8</ele>
        <time>2024-08-03T11:54:06Z</time>
      </trkpt>
      <trkpt lat="42.82201" lon="-0.0976">
        <ele>1582</ele>
        <time>2024-08-03T11:54:11Z</time>
      </trkpt>
      <trkpt lat="42.82203" lon="-0.09758">
        <ele>1581.8</ele>
        <time>2024-08-03T11:54:13Z</time>
      </trkpt>
      <trkpt lat="42.82208" lon="-0.09755">
        <ele>1581</ele>
        <time>2024-08-03T11:54:18Z</time>
      </trkpt>
      <trkpt lat="42.82211" lon="-0.09754">
        <ele>1580.6</ele>
        <time>2024-08-03T11:54:20Z</time>
      </trkpt>
      <trkpt lat="42.82218" lon="-0.09745">
        <ele>1579.6</ele>
        <time>2024-08-03T11:54:27Z</time>
      </trkpt>
      <trkpt lat="42.82219" lon="-0.09743">
        <ele>1579.4</ele>
        <time>2024-08-03T11:54:28Z</time>
      </trkpt>
      <trkpt lat="42.82225" lon="-0.09739">
        <ele>1578.6</ele>
        <time>2024-08-03T11:54:34Z</time>
      </trkpt>
      <trkpt lat="42.8223" lon="-0.09735">
        <ele>1578</ele>
        <time>2024-08-03T11:54:39Z</time>
      </trkpt>
      <trkpt lat="42.82237" lon="-0.0973">
        <ele>1577.4</ele>
        <time>2024-08-03T11:54:45Z</time>
      </trkpt>
      <trkpt lat="42.82245" lon="-0.09727">
        <ele>1576.6</ele>
        <time>2024-08-03T11:54:52Z</time>
      </trkpt>
      <trkpt lat="42.82251" lon="-0.09727">
        <ele>1576</ele>
        <time>2024-08-03T11:54:56Z</time>
      </trkpt>
      <trkpt lat="42.82373" lon="-0.09698">
        <ele>1570.2</ele>
        <time>2024-08-03T11:56:43Z</time>
      </trkpt>
      <trkpt lat="42.82367" lon="-0.09683">
        <ele>1569.4</ele>
        <time>2024-08-03T11:56:50Z</time>
      </trkpt>
      <trkpt lat="42.8237" lon="-0.09682">
        <ele>1569.2</ele>
        <time>2024-08-03T11:56:52Z</time>
      </trkpt>
      <trkpt lat="42.82382" lon="-0.09672">
        <ele>1568.8</ele>
        <time>2024-08-03T11:57:02Z</time>
      </trkpt>
      <trkpt lat="42.82483" lon="-0.09615">
        <ele>1563</ele>
        <time>2024-08-03T11:58:42Z</time>
      </trkpt>
      <trkpt lat="42.82477" lon="-0.09618">
        <ele>1562.6</ele>
        <time>2024-08-03T11:58:43Z</time>
      </trkpt>
      <trkpt lat="42.82466" lon="-0.09628">
        <ele>1562.4</ele>
        <time>2024-08-03T11:58:47Z</time>
      </trkpt>
      <trkpt lat="42.82473" lon="-0.0963">
        <ele>1562</ele>
        <time>2024-08-03T11:58:53Z</time>
      </trkpt>
      <trkpt lat="42.82475" lon="-0.0963">
        <ele>1561.8</ele>
        <time>2024-08-03T11:58:54Z</time>
      </trkpt>
      <trkpt lat="42.82478" lon="-0.09629">
        <ele>1561.8</ele>
        <time>2024-08-03T11:58:56Z</time>
      </trkpt>
      <trkpt lat="42.8248" lon="-0.09628">
        <ele>1561.6</ele>
        <time>2024-08-03T11:58:58Z</time>
      </trkpt>
      <trkpt lat="42.82486" lon="-0.09623">
        <ele>1561</ele>
        <time>2024-08-03T11:59:03Z</time>
      </trkpt>
      <trkpt lat="42.82494" lon="-0.09625">
        <ele>1560.6</ele>
        <time>2024-08-03T11:59:10Z</time>
      </trkpt>
      <trkpt lat="42.82495" lon="-0.09625">
        <ele>1560.4</ele>
        <time>2024-08-03T11:59:11Z</time>
      </trkpt>
      <trkpt lat="42.82504" lon="-0.09626">
        <ele>1559.6</ele>
        <time>2024-08-03T11:59:19Z</time>
      </trkpt>
      <trkpt lat="42.82506" lon="-0.09626">
        <ele>1559.4</ele>
        <time>2024-08-03T11:59:20Z</time>
      </trkpt>
      <trkpt lat="42.82518" lon="-0.09624">
        <ele>1558.4</ele>
        <time>2024-08-03T11:59:30Z</time>
      </trkpt>
      <trkpt lat="42.82519" lon="-0.09623">
        <ele>1558.2</ele>
        <time>2024-08-03T11:59:31Z</time>
      </trkpt>
      <trkpt lat="42.82524" lon="-0.0962">
        <ele>1558.2</ele>
        <time>2024-08-03T11:59:38Z</time>
      </trkpt>
      <trkpt lat="42.82535" lon="-0.09616">
        <ele>1558.4</ele>
        <time>2024-08-03T11:59:48Z</time>
      </trkpt>
      <trkpt lat="42.82543" lon="-0.0962">
        <ele>1559.2</ele>
        <time>2024-08-03T11:59:57Z</time>
      </trkpt>
      <trkpt lat="42.82545" lon="-0.0962">
        <ele>1559.4</ele>
        <time>2024-08-03T11:59:58Z</time>
      </trkpt>
      <trkpt lat="42.82554" lon="-0.09619">
        <ele>1560.8</ele>
        <time>2024-08-03T12:00:04Z</time>
      </trkpt>
      <trkpt lat="42.82568" lon="-0.09621">
        <ele>1560.4</ele>
        <time>2024-08-03T12:00:14Z</time>
      </trkpt>
      <trkpt lat="42.82577" lon="-0.09625">
        <ele>1559.6</ele>
        <time>2024-08-03T12:00:22Z</time>
      </trkpt>
      <trkpt lat="42.82582" lon="-0.09625">
        <ele>1559</ele>
        <time>2024-08-03T12:00:26Z</time>
      </trkpt>
      <trkpt lat="42.82589" lon="-0.09625">
        <ele>1558.6</ele>
        <time>2024-08-03T12:00:32Z</time>
      </trkpt>
      <trkpt lat="42.82595" lon="-0.09625">
        <ele>1557.8</ele>
        <time>2024-08-03T12:00:37Z</time>
      </trkpt>
      <trkpt lat="42.82598" lon="-0.09627">
        <ele>1557.4</ele>
        <time>2024-08-03T12:00:40Z</time>
      </trkpt>
      <trkpt lat="42.82603" lon="-0.09625">
        <ele>1557</ele>
        <time>2024-08-03T12:00:44Z</time>
      </trkpt>
      <trkpt lat="42.82614" lon="-0.09621">
        <ele>1556.4</ele>
        <time>2024-08-03T12:00:55Z</time>
      </trkpt>
      <trkpt lat="42.82616" lon="-0.09621">
        <ele>1556.4</ele>
        <time>2024-08-03T12:00:57Z</time>
      </trkpt>
      <trkpt lat="42.82624" lon="-0.0962">
        <ele>1555.8</ele>
        <time>2024-08-03T12:01:02Z</time>
      </trkpt>
      <trkpt lat="42.82717" lon="-0.09581">
        <ele>1547.8</ele>
        <time>2024-08-03T12:02:45Z</time>
      </trkpt>
      <trkpt lat="42.8275" lon="-0.0957">
        <ele>1547.8</ele>
        <time>2024-08-03T12:02:46Z</time>
      </trkpt>
      <trkpt lat="42.82739" lon="-0.09582">
        <ele>1547.2</ele>
        <time>2024-08-03T12:02:52Z</time>
      </trkpt>
      <trkpt lat="42.82744" lon="-0.0958">
        <ele>1547</ele>
        <time>2024-08-03T12:02:58Z</time>
      </trkpt>
      <trkpt lat="42.82747" lon="-0.09581">
        <ele>1547</ele>
        <time>2024-08-03T12:03:00Z</time>
      </trkpt>
      <trkpt lat="42.82875" lon="-0.09639">
        <ele>1539.8</ele>
        <time>2024-08-03T12:04:42Z</time>
      </trkpt>
      <trkpt lat="42.82864" lon="-0.09663">
        <ele>1539.8</ele>
        <time>2024-08-03T12:04:43Z</time>
      </trkpt>
      <trkpt lat="42.82866" lon="-0.0965">
        <ele>1539.6</ele>
        <time>2024-08-03T12:04:45Z</time>
      </trkpt>
      <trkpt lat="42.8286" lon="-0.09648">
        <ele>1539</ele>
        <time>2024-08-03T12:04:51Z</time>
      </trkpt>
      <trkpt lat="42.82865" lon="-0.09647">
        <ele>1538.6</ele>
        <time>2024-08-03T12:04:55Z</time>
      </trkpt>
      <trkpt lat="42.82871" lon="-0.09651">
        <ele>1538.2</ele>
        <time>2024-08-03T12:04:59Z</time>
      </trkpt>
      <trkpt lat="42.82872" lon="-0.09652">
        <ele>1538</ele>
        <time>2024-08-03T12:05:00Z</time>
      </trkpt>
      <trkpt lat="42.82988" lon="-0.09655">
        <ele>1532.2</ele>
        <time>2024-08-03T12:06:46Z</time>
      </trkpt>
      <trkpt lat="42.8299" lon="-0.09656">
        <ele>1532.2</ele>
        <time>2024-08-03T12:06:47Z</time>
      </trkpt>
      <trkpt lat="42.83001" lon="-0.09656">
        <ele>1531.6</ele>
        <time>2024-08-03T12:06:53Z</time>
      </trkpt>
      <trkpt lat="42.83006" lon="-0.09658">
        <ele>1531.4</ele>
        <time>2024-08-03T12:06:58Z</time>
      </trkpt>
      <trkpt lat="42.83101" lon="-0.09592">
        <ele>1528.8</ele>
        <time>2024-08-03T12:08:45Z</time>
      </trkpt>
      <trkpt lat="42.83118" lon="-0.09609">
        <ele>1528.6</ele>
        <time>2024-08-03T12:08:48Z</time>
      </trkpt>
      <trkpt lat="42.83115" lon="-0.09608">
        <ele>1528.6</ele>
        <time>2024-08-03T12:08:49Z</time>
      </trkpt>
      <trkpt lat="42.83118" lon="-0.09607">
        <ele>1528.6</ele>
        <time>2024-08-03T12:08:52Z</time>
      </trkpt>
      <trkpt lat="42.83123" lon="-0.09608">
        <ele>1528.4</ele>
        <time>2024-08-03T12:08:58Z</time>
      </trkpt>
      <trkpt lat="42.83124" lon="-0.09604">
        <ele>1528.4</ele>
        <time>2024-08-03T12:09:04Z</time>
      </trkpt>
      <trkpt lat="42.83238" lon="-0.09575">
        <ele>1516</ele>
        <time>2024-08-03T12:10:43Z</time>
      </trkpt>
      <trkpt lat="42.83217" lon="-0.09559">
        <ele>1515.6</ele>
        <time>2024-08-03T12:10:45Z</time>
      </trkpt>
      <trkpt lat="42.83221" lon="-0.09562">
        <ele>1515.2</ele>
        <time>2024-08-03T12:10:47Z</time>
      </trkpt>
      <trkpt lat="42.83223" lon="-0.09565">
        <ele>1515</ele>
        <time>2024-08-03T12:10:50Z</time>
      </trkpt>
      <trkpt lat="42.83223" lon="-0.09569">
        <ele>1514.6</ele>
        <time>2024-08-03T12:10:53Z</time>
      </trkpt>
      <trkpt lat="42.8323" lon="-0.09572">
        <ele>1513.8</ele>
        <time>2024-08-03T12:10:58Z</time>
      </trkpt>
      <trkpt lat="42.83231" lon="-0.09576">
        <ele>1512.6</ele>
        <time>2024-08-03T12:11:02Z</time>
      </trkpt>
      <trkpt lat="42.83342" lon="-0.096">
        <ele>1501.8</ele>
        <time>2024-08-03T12:12:42Z</time>
      </trkpt>
      <trkpt lat="42.83343" lon="-0.09601">
        <ele>1501.4</ele>
        <time>2024-08-03T12:12:46Z</time>
      </trkpt>
      <trkpt lat="42.83344" lon="-0.09602">
        <ele>1501.2</ele>
        <time>2024-08-03T12:12:47Z</time>
      </trkpt>
      <trkpt lat="42.83356" lon="-0.09601">
        <ele>1500.4</ele>
        <time>2024-08-03T12:12:57Z</time>
      </trkpt>
      <trkpt lat="42.83357" lon="-0.09601">
        <ele>1500.2</ele>
        <time>2024-08-03T12:12:58Z</time>
      </trkpt>
      <trkpt lat="42.83365" lon="-0.09598">
        <ele>1499.8</ele>
        <time>2024-08-03T12:13:06Z</time>
      </trkpt>
      <trkpt lat="42.83373" lon="-0.09596">
        <ele>1499.4</ele>
        <time>2024-08-03T12:13:14Z</time>
      </trkpt>
      <trkpt lat="42.83375" lon="-0.09596">
        <ele>1499.2</ele>
        <time>2024-08-03T12:13:16Z</time>
      </trkpt>
      <trkpt lat="42.83382" lon="-0.09598">
        <ele>1498.8</ele>
        <time>2024-08-03T12:13:23Z</time>
      </trkpt>
      <trkpt lat="42.83393" lon="-0.09601">
        <ele>1498.4</ele>
        <time>2024-08-03T12:13:33Z</time>
      </trkpt>
      <trkpt lat="42.83405" lon="-0.09607">
        <ele>1498.2</ele>
        <time>2024-08-03T12:13:43Z</time>
      </trkpt>
      <trkpt lat="42.83406" lon="-0.09608">
        <ele>1498</ele>
        <time>2024-08-03T12:13:44Z</time>
      </trkpt>
      <trkpt lat="42.8341" lon="-0.09611">
        <ele>1497.4</ele>
        <time>2024-08-03T12:13:48Z</time>
      </trkpt>
      <trkpt lat="42.83412" lon="-0.09611">
        <ele>1497.2</ele>
        <time>2024-08-03T12:13:50Z</time>
      </trkpt>
      <trkpt lat="42.83421" lon="-0.09611">
        <ele>1497</ele>
        <time>2024-08-03T12:13:57Z</time>
      </trkpt>
      <trkpt lat="42.83424" lon="-0.09611">
        <ele>1496.4</ele>
        <time>2024-08-03T12:14:00Z</time>
      </trkpt>
      <trkpt lat="42.83434" lon="-0.09611">
        <ele>1496</ele>
        <time>2024-08-03T12:14:08Z</time>
      </trkpt>
      <trkpt lat="42.83435" lon="-0.09611">
        <ele>1495.8</ele>
        <time>2024-08-03T12:14:09Z</time>
      </trkpt>
      <trkpt lat="42.83446" lon="-0.09611">
        <ele>1495.2</ele>
        <time>2024-08-03T12:14:18Z</time>
      </trkpt>
      <trkpt lat="42.83457" lon="-0.09615">
        <ele>1495.2</ele>
        <time>2024-08-03T12:14:27Z</time>
      </trkpt>
      <trkpt lat="42.83464" lon="-0.09617">
        <ele>1494.8</ele>
        <time>2024-08-03T12:14:33Z</time>
      </trkpt>
      <trkpt lat="42.83467" lon="-0.09618">
        <ele>1495</ele>
        <time>2024-08-03T12:14:36Z</time>
      </trkpt>
      <trkpt lat="42.83476" lon="-0.09625">
        <ele>1494.6</ele>
        <time>2024-08-03T12:14:46Z</time>
      </trkpt>
      <trkpt lat="42.83479" lon="-0.09628">
        <ele>1493.8</ele>
        <time>2024-08-03T12:14:51Z</time>
      </trkpt>
      <trkpt lat="42.83485" lon="-0.09632">
        <ele>1493</ele>
        <time>2024-08-03T12:14:57Z</time>
      </trkpt>
      <trkpt lat="42.83486" lon="-0.09632">
        <ele>1492.6</ele>
        <time>2024-08-03T12:14:58Z</time>
      </trkpt>
      <trkpt lat="42.8349" lon="-0.09635">
        <ele>1492.2</ele>
        <time>2024-08-03T12:15:04Z</time>
      </trkpt>
      <trkpt lat="42.83608" lon="-0.09674">
        <ele>1486.4</ele>
        <time>2024-08-03T12:16:45Z</time>
      </trkpt>
      <trkpt lat="42.83611" lon="-0.09669">
        <ele>1486.2</ele>
        <time>2024-08-03T12:16:46Z</time>
      </trkpt>
      <trkpt lat="42.83616" lon="-0.09666">
        <ele>1486.2</ele>
        <time>2024-08-03T12:16:50Z</time>
      </trkpt>
      <trkpt lat="42.83629" lon="-0.09664">
        <ele>1486.4</ele>
        <time>2024-08-03T12:17:02Z</time>
      </trkpt>
      <trkpt lat="42.83736" lon="-0.09639">
        <ele>1482</ele>
        <time>2024-08-03T12:18:43Z</time>
      </trkpt>
      <trkpt lat="42.8375" lon="-0.09632">
        <ele>1481.4</ele>
        <time>2024-08-03T12:18:51Z</time>
      </trkpt>
      <trkpt lat="42.83758" lon="-0.09627">
        <ele>1480.8</ele>
        <time>2024-08-03T12:18:58Z</time>
      </trkpt>
      <trkpt lat="42.83764" lon="-0.09625">
        <ele>1480.6</ele>
        <time>2024-08-03T12:19:03Z</time>
      </trkpt>
      <trkpt lat="42.83882" lon="-0.09618">
        <ele>1476.2</ele>
        <time>2024-08-03T12:20:43Z</time>
      </trkpt>
      <trkpt lat="42.83885" lon="-0.09621">
        <ele>1476.4</ele>
        <time>2024-08-03T12:20:47Z</time>
      </trkpt>
      <trkpt lat="42.83894" lon="-0.09615">
        <ele>1476</ele>
        <time>2024-08-03T12:20:54Z</time>
      </trkpt>
      <trkpt lat="42.83904" lon="-0.09617">
        <ele>1475.6</ele>
        <time>2024-08-03T12:21:02Z</time>
      </trkpt>
      <trkpt lat="42.83904" lon="-0.09617">
        <ele>1475.6</ele>
        <time>2024-08-03T12:21:03Z</time>
      </trkpt>
      <trkpt lat="42.84008" lon="-0.0967">
        <ele>1472</ele>
        <time>2024-08-03T12:22:46Z</time>
      </trkpt>
      <trkpt lat="42.84017" lon="-0.09665">
        <ele>1472</ele>
        <time>2024-08-03T12:22:52Z</time>
      </trkpt>
      <trkpt lat="42.84024" lon="-0.09668">
        <ele>1471.8</ele>
        <time>2024-08-03T12:22:59Z</time>
      </trkpt>
      <trkpt lat="42.84118" lon="-0.0972">
        <ele>1465</ele>
        <time>2024-08-03T12:24:44Z</time>
      </trkpt>
      <trkpt lat="42.8412" lon="-0.09715">
        <ele>1464.6</ele>
        <time>2024-08-03T12:24:48Z</time>
      </trkpt>
      <trkpt lat="42.84125" lon="-0.09717">
        <ele>1463.8</ele>
        <time>2024-08-03T12:24:53Z</time>
      </trkpt>
      <trkpt lat="42.84125" lon="-0.09717">
        <ele>1463.4</ele>
        <time>2024-08-03T12:24:54Z</time>
      </trkpt>
      <trkpt lat="42.84127" lon="-0.0972">
        <ele>1463</ele>
        <time>2024-08-03T12:24:59Z</time>
      </trkpt>
      <trkpt lat="42.84129" lon="-0.09722">
        <ele>1462.4</ele>
        <time>2024-08-03T12:25:04Z</time>
      </trkpt>
      <trkpt lat="42.84209" lon="-0.09657">
        <ele>1453</ele>
        <time>2024-08-03T12:26:43Z</time>
      </trkpt>
      <trkpt lat="42.84206" lon="-0.0966">
        <ele>1452.8</ele>
        <time>2024-08-03T12:26:44Z</time>
      </trkpt>
      <trkpt lat="42.84215" lon="-0.09659">
        <ele>1452.8</ele>
        <time>2024-08-03T12:26:47Z</time>
      </trkpt>
      <trkpt lat="42.84212" lon="-0.09655">
        <ele>1452.8</ele>
        <time>2024-08-03T12:26:48Z</time>
      </trkpt>
      <trkpt lat="42.84212" lon="-0.09654">
        <ele>1452.8</ele>
        <time>2024-08-03T12:26:50Z</time>
      </trkpt>
      <trkpt lat="42.84212" lon="-0.09654">
        <ele>1452.8</ele>
        <time>2024-08-03T12:26:51Z</time>
      </trkpt>
      <trkpt lat="42.84216" lon="-0.09654">
        <ele>1452.4</ele>
        <time>2024-08-03T12:26:56Z</time>
      </trkpt>
      <trkpt lat="42.84217" lon="-0.09653">
        <ele>1452.4</ele>
        <time>2024-08-03T12:26:57Z</time>
      </trkpt>
      <trkpt lat="42.84324" lon="-0.09656">
        <ele>1450.8</ele>
        <time>2024-08-03T12:28:42Z</time>
      </trkpt>
      <trkpt lat="42.84287" lon="-0.09768">
        <ele>1450.8</ele>
        <time>2024-08-03T12:28:43Z</time>
      </trkpt>
      <trkpt lat="42.84312" lon="-0.09706">
        <ele>1450.8</ele>
        <time>2024-08-03T12:28:44Z</time>
      </trkpt>
      <trkpt lat="42.84318" lon="-0.09689">
        <ele>1450.6</ele>
        <time>2024-08-03T12:28:45Z</time>
      </trkpt>
      <trkpt lat="42.84325" lon="-0.09665">
        <ele>1450.6</ele>
        <time>2024-08-03T12:28:48Z</time>
      </trkpt>
      <trkpt lat="42.84328" lon="-0.09665">
        <ele>1450.2</ele>
        <time>2024-08-03T12:28:50Z</time>
      </trkpt>
      <trkpt lat="42.84334" lon="-0.09663">
        <ele>1449.8</ele>
        <time>2024-08-03T12:28:55Z</time>
      </trkpt>
      <trkpt lat="42.8444" lon="-0.09653">
        <ele>1438.8</ele>
        <time>2024-08-03T12:30:42Z</time>
      </trkpt>
      <trkpt lat="42.84442" lon="-0.09665">
        <ele>1437.6</ele>
        <time>2024-08-03T12:30:49Z</time>
      </trkpt>
      <trkpt lat="42.84446" lon="-0.0966">
        <ele>1437</ele>
        <time>2024-08-03T12:30:52Z</time>
      </trkpt>
      <trkpt lat="42.84449" lon="-0.0966">
        <ele>1436.4</ele>
        <time>2024-08-03T12:30:55Z</time>
      </trkpt>
      <trkpt lat="42.84454" lon="-0.09654">
        <ele>1435.2</ele>
        <time>2024-08-03T12:31:01Z</time>
      </trkpt>
      <trkpt lat="42.84455" lon="-0.09654">
        <ele>1435.2</ele>
        <time>2024-08-03T12:31:02Z</time>
      </trkpt>
      <trkpt lat="42.84545" lon="-0.09624">
        <ele>1421.8</ele>
        <time>2024-08-03T12:32:42Z</time>
      </trkpt>
      <trkpt lat="42.8455" lon="-0.09618">
        <ele>1421</ele>
        <time>2024-08-03T12:32:44Z</time>
      </trkpt>
      <trkpt lat="42.84554" lon="-0.09621">
        <ele>1420</ele>
        <time>2024-08-03T12:32:48Z</time>
      </trkpt>
      <trkpt lat="42.84555" lon="-0.09618">
        <ele>1420</ele>
        <time>2024-08-03T12:32:49Z</time>
      </trkpt>
      <trkpt lat="42.84555" lon="-0.09618">
        <ele>1419.8</ele>
        <time>2024-08-03T12:32:50Z</time>
      </trkpt>
      <trkpt lat="42.84556" lon="-0.09612">
        <ele>1420.4</ele>
        <time>2024-08-03T12:32:56Z</time>
      </trkpt>
      <trkpt lat="42.84556" lon="-0.09614">
        <ele>1420.4</ele>
        <time>2024-08-03T12:33:03Z</time>
      </trkpt>
      <trkpt lat="42.84659" lon="-0.09624">
        <ele>1412.8</ele>
        <time>2024-08-03T12:34:42Z</time>
      </trkpt>
      <trkpt lat="42.84661" lon="-0.0962">
        <ele>1412.8</ele>
        <time>2024-08-03T12:34:44Z</time>
      </trkpt>
      <trkpt lat="42.84669" lon="-0.09627">
        <ele>1413</ele>
        <time>2024-08-03T12:34:51Z</time>
      </trkpt>
      <trkpt lat="42.84675" lon="-0.09625">
        <ele>1412.4</ele>
        <time>2024-08-03T12:34:58Z</time>
      </trkpt>
      <trkpt lat="42.84778" lon="-0.09652">
        <ele>1404.8</ele>
        <time>2024-08-03T12:36:42Z</time>
      </trkpt>
      <trkpt lat="42.84779" lon="-0.09649">
        <ele>1404.6</ele>
        <time>2024-08-03T12:36:43Z</time>
      </trkpt>
      <trkpt lat="42.84783" lon="-0.09643">
        <ele>1404.6</ele>
        <time>2024-08-03T12:36:44Z</time>
      </trkpt>
      <trkpt lat="42.84786" lon="-0.09643">
        <ele>1404.8</ele>
        <time>2024-08-03T12:36:47Z</time>
      </trkpt>
      <trkpt lat="42.84792" lon="-0.09651">
        <ele>1404.4</ele>
        <time>2024-08-03T12:36:54Z</time>
      </trkpt>
      <trkpt lat="42.84798" lon="-0.09655">
        <ele>1403.8</ele>
        <time>2024-08-03T12:37:00Z</time>
      </trkpt>
      <trkpt lat="42.84799" lon="-0.09656">
        <ele>1403.4</ele>
        <time>2024-08-03T12:37:04Z</time>
      </trkpt>
      <trkpt lat="42.84919" lon="-0.09719">
        <ele>1394.8</ele>
        <time>2024-08-03T12:38:47Z</time>
      </trkpt>
      <trkpt lat="42.84923" lon="-0.09728">
        <ele>1395.6</ele>
        <time>2024-08-03T12:38:56Z</time>
      </trkpt>
      <trkpt lat="42.84928" lon="-0.0973">
        <ele>1395.8</ele>
        <time>2024-08-03T12:39:01Z</time>
      </trkpt>
      <trkpt lat="42.84929" lon="-0.09732">
        <ele>1396</ele>
        <time>2024-08-03T12:39:03Z</time>
      </trkpt>
      <trkpt lat="42.8504" lon="-0.09771">
        <ele>1389.6</ele>
        <time>2024-08-03T12:40:42Z</time>
      </trkpt>
      <trkpt lat="42.85044" lon="-0.09778">
        <ele>1389.4</ele>
        <time>2024-08-03T12:40:44Z</time>
      </trkpt>
      <trkpt lat="42.85049" lon="-0.0978">
        <ele>1388.8</ele>
        <time>2024-08-03T12:40:48Z</time>
      </trkpt>
      <trkpt lat="42.85055" lon="-0.09784">
        <ele>1388.4</ele>
        <time>2024-08-03T12:40:54Z</time>
      </trkpt>
      <trkpt lat="42.85064" lon="-0.09789">
        <ele>1388</ele>
        <time>2024-08-03T12:41:01Z</time>
      </trkpt>
      <trkpt lat="42.85192" lon="-0.09777">
        <ele>1381</ele>
        <time>2024-08-03T12:42:47Z</time>
      </trkpt>
      <trkpt lat="42.85205" lon="-0.09783">
        <ele>1380.8</ele>
        <time>2024-08-03T12:42:59Z</time>
      </trkpt>
      <trkpt lat="42.85206" lon="-0.09783">
        <ele>1380.6</ele>
        <time>2024-08-03T12:43:01Z</time>
      </trkpt>
      <trkpt lat="42.85207" lon="-0.09783">
        <ele>1380.6</ele>
        <time>2024-08-03T12:43:02Z</time>
      </trkpt>
      <trkpt lat="42.85231" lon="-0.09782">
        <ele>1380</ele>
        <time>2024-08-03T12:43:27Z</time>
      </trkpt>
      <trkpt lat="42.85246" lon="-0.09799">
        <ele>1380.4</ele>
        <time>2024-08-03T12:43:45Z</time>
      </trkpt>
      <trkpt lat="42.85251" lon="-0.09803">
        <ele>1379.6</ele>
        <time>2024-08-03T12:43:59Z</time>
      </trkpt>
      <trkpt lat="42.85265" lon="-0.098">
        <ele>1378.8</ele>
        <time>2024-08-03T12:44:21Z</time>
      </trkpt>
      <trkpt lat="42.85293" lon="-0.09814">
        <ele>1378.2</ele>
        <time>2024-08-03T12:44:41Z</time>
      </trkpt>
      <trkpt lat="42.85292" lon="-0.09814">
        <ele>1378.2</ele>
        <time>2024-08-03T12:44:42Z</time>
      </trkpt>
      <trkpt lat="42.85301" lon="-0.09819">
        <ele>1377.6</ele>
        <time>2024-08-03T12:44:47Z</time>
      </trkpt>
      <trkpt lat="42.8531" lon="-0.09822">
        <ele>1377</ele>
        <time>2024-08-03T12:44:54Z</time>
      </trkpt>
      <trkpt lat="42.85317" lon="-0.09821">
        <ele>1376.4</ele>
        <time>2024-08-03T12:45:01Z</time>
      </trkpt>
      <trkpt lat="42.85318" lon="-0.09822">
        <ele>1376.4</ele>
        <time>2024-08-03T12:45:04Z</time>
      </trkpt>
    </trkseg>
  </trk>
</gpx>